createdAt,value
2019-03-18T00:00:08.174Z,12.51
2019-03-18T00:00:39.373Z,12.56
2019-03-18T00:01:10.588Z,12.67
2019-03-18T00:01:41.807Z,12.77
2019-03-18T00:02:13.023Z,12.87
2019-03-18T00:02:44.282Z,13.03
2019-03-18T00:03:15.499Z,13.09
2019-03-18T00:03:46.712Z,13.13
2019-03-18T00:04:17.935Z,13.23
2019-03-18T00:04:49.133Z,13.32
2019-03-18T00:05:20.339Z,13.33
2019-03-18T00:05:51.548Z,13.36
2019-03-18T00:06:22.780Z,13.41
2019-03-18T00:06:53.987Z,13.43
2019-03-18T00:07:25.241Z,13.50
2019-03-18T00:07:56.433Z,13.57
2019-03-18T00:08:27.640Z,13.58
2019-03-18T00:08:58.875Z,13.60
2019-03-18T00:09:30.063Z,13.62
2019-03-18T00:10:01.324Z,13.63
2019-03-18T00:10:32.526Z,13.63
2019-03-18T00:11:03.738Z,13.59
2019-03-18T00:11:34.933Z,13.53
2019-03-18T00:12:06.145Z,13.47
2019-03-18T00:12:37.371Z,13.44
2019-03-18T00:13:08.575Z,13.41
2019-03-18T00:13:39.813Z,13.39
2019-03-18T00:14:10.998Z,13.37
2019-03-18T00:14:42.196Z,13.36
2019-03-18T00:15:13.454Z,13.41
2019-03-18T00:15:44.710Z,13.49
2019-03-18T00:16:15.900Z,13.53
2019-03-18T00:16:47.116Z,13.55
2019-03-18T00:17:18.349Z,13.58
2019-03-18T00:17:49.555Z,13.59
2019-03-18T00:18:20.752Z,13.68
2019-03-18T00:18:52.019Z,13.71
2019-03-18T00:19:23.200Z,13.68
2019-03-18T00:19:54.416Z,13.64
2019-03-18T00:20:25.625Z,13.62
2019-03-18T00:20:56.834Z,13.62
2019-03-18T00:21:28.033Z,13.67
2019-03-18T00:21:59.234Z,13.66
2019-03-18T00:22:30.452Z,13.67
2019-03-18T00:23:01.672Z,13.66
2019-03-18T00:23:32.859Z,13.62
2019-03-18T00:24:04.062Z,13.60
2019-03-18T00:24:35.251Z,13.63
2019-03-18T00:25:06.492Z,13.68
2019-03-18T00:25:37.741Z,13.64
2019-03-18T00:26:08.940Z,13.58
2019-03-18T00:26:40.138Z,13.57
2019-03-18T00:27:11.390Z,13.58
2019-03-18T00:27:42.585Z,13.55
2019-03-18T00:28:13.814Z,13.53
2019-03-18T00:28:45.000Z,13.48
2019-03-18T00:29:16.213Z,13.50
2019-03-18T00:29:47.407Z,13.49
2019-03-18T00:30:18.621Z,13.50
2019-03-18T00:30:49.834Z,13.49
2019-03-18T00:31:21.025Z,13.48
2019-03-18T00:31:53.150Z,13.52
2019-03-18T00:32:24.355Z,13.54
2019-03-18T00:32:55.608Z,13.53
2019-03-18T00:33:26.814Z,13.53
2019-03-18T00:33:58.015Z,13.46
2019-03-18T00:34:29.229Z,13.41
2019-03-18T00:35:00.432Z,13.33
2019-03-18T00:35:31.669Z,13.28
2019-03-18T00:36:02.869Z,13.24
2019-03-18T00:36:34.096Z,13.19
2019-03-18T00:37:05.307Z,13.14
2019-03-18T00:37:36.506Z,13.10
2019-03-18T00:38:07.708Z,13.06
2019-03-18T00:38:38.905Z,13.04
2019-03-18T00:39:10.096Z,13.00
2019-03-18T00:39:41.343Z,12.96
2019-03-18T00:40:12.612Z,12.92
2019-03-18T00:40:43.845Z,12.90
2019-03-18T00:41:15.039Z,12.87
2019-03-18T00:41:46.247Z,12.87
2019-03-18T00:42:17.451Z,12.85
2019-03-18T00:42:48.655Z,12.87
2019-03-18T00:43:19.859Z,12.95
2019-03-18T00:43:51.057Z,13.01
2019-03-18T00:44:22.308Z,13.06
2019-03-18T00:44:53.510Z,13.08
2019-03-18T00:45:24.708Z,13.08
2019-03-18T00:45:55.913Z,13.04
2019-03-18T00:46:27.145Z,13.03
2019-03-18T00:46:58.324Z,13.01
2019-03-18T00:47:29.525Z,12.99
2019-03-18T00:48:00.775Z,12.98
2019-03-18T00:48:31.975Z,12.99
2019-03-18T00:49:03.169Z,12.99
2019-03-18T00:49:34.392Z,12.99
2019-03-18T00:50:05.591Z,13.00
2019-03-18T00:50:36.851Z,12.97
2019-03-18T00:51:08.058Z,12.97
2019-03-18T00:51:39.265Z,12.96
2019-03-18T00:52:10.480Z,12.92
2019-03-18T00:52:41.830Z,12.90
2019-03-18T00:53:13.941Z,12.86
2019-03-18T00:53:45.141Z,12.83
2019-03-18T00:54:16.381Z,12.77
2019-03-18T00:54:47.564Z,12.73
2019-03-18T00:55:18.780Z,12.70
2019-03-18T00:55:51.758Z,12.67
2019-03-18T00:56:22.990Z,12.64
2019-03-18T00:56:54.202Z,12.59
2019-03-18T00:57:25.418Z,12.54
2019-03-18T00:57:56.633Z,12.52
2019-03-18T00:58:27.834Z,12.50
2019-03-18T00:58:59.059Z,12.47
2019-03-18T00:59:30.271Z,12.47
2019-03-18T01:00:01.506Z,12.46
2019-03-18T01:00:32.709Z,12.45
2019-03-18T01:01:03.989Z,12.41
2019-03-18T01:01:35.191Z,12.39
2019-03-18T01:02:06.461Z,12.34
2019-03-18T01:02:37.741Z,12.31
2019-03-18T01:03:08.914Z,12.29
2019-03-18T01:03:40.120Z,12.24
2019-03-18T01:04:11.409Z,12.20
2019-03-18T01:04:42.575Z,12.14
2019-03-18T01:05:13.774Z,12.08
2019-03-18T01:05:45.011Z,12.02
2019-03-18T01:06:16.251Z,11.96
2019-03-18T01:06:47.520Z,11.94
2019-03-18T01:07:18.723Z,11.89
2019-03-18T01:07:49.928Z,11.89
2019-03-18T01:08:21.122Z,11.86
2019-03-18T01:08:52.334Z,11.84
2019-03-18T01:09:23.544Z,11.84
2019-03-18T01:09:54.736Z,11.83
2019-03-18T01:10:25.980Z,11.83
2019-03-18T01:10:57.183Z,11.83
2019-03-18T01:11:28.386Z,11.83
2019-03-18T01:11:59.634Z,11.83
2019-03-18T01:12:30.844Z,11.81
2019-03-18T01:13:02.060Z,11.82
2019-03-18T01:13:33.268Z,11.81
2019-03-18T01:14:04.471Z,11.82
2019-03-18T01:14:35.692Z,11.82
2019-03-18T01:15:06.899Z,11.85
2019-03-18T01:15:38.143Z,11.84
2019-03-18T01:16:09.348Z,11.83
2019-03-18T01:16:40.625Z,11.82
2019-03-18T01:17:11.839Z,11.82
2019-03-18T01:17:43.062Z,11.81
2019-03-18T01:18:15.369Z,11.81
2019-03-18T01:18:46.567Z,11.83
2019-03-18T01:19:17.775Z,11.84
2019-03-18T01:19:49.029Z,11.82
2019-03-18T01:20:20.245Z,11.83
2019-03-18T01:20:51.446Z,11.80
2019-03-18T01:21:22.653Z,11.79
2019-03-18T01:21:53.856Z,11.77
2019-03-18T01:22:25.056Z,11.74
2019-03-18T01:22:56.271Z,11.68
2019-03-18T01:23:27.547Z,11.65
2019-03-18T01:23:58.762Z,11.59
2019-03-18T01:24:30.004Z,11.52
2019-03-18T01:25:01.241Z,11.46
2019-03-18T01:25:32.449Z,11.40
2019-03-18T01:26:03.644Z,11.33
2019-03-18T01:26:34.844Z,11.32
2019-03-18T01:27:06.069Z,11.28
2019-03-18T01:27:37.294Z,11.26
2019-03-18T01:28:08.497Z,11.23
2019-03-18T01:28:39.705Z,11.23
2019-03-18T01:29:10.922Z,11.23
2019-03-18T01:29:42.182Z,11.22
2019-03-18T01:30:13.387Z,11.20
2019-03-18T01:30:44.597Z,11.19
2019-03-18T01:31:15.805Z,11.17
2019-03-18T01:31:47.024Z,11.16
2019-03-18T01:32:18.250Z,11.17
2019-03-18T01:32:49.454Z,11.12
2019-03-18T01:33:20.660Z,11.11
2019-03-18T01:33:51.863Z,11.06
2019-03-18T01:34:23.122Z,11.01
2019-03-18T01:34:54.322Z,10.97
2019-03-18T01:35:25.523Z,10.91
2019-03-18T01:35:56.723Z,10.87
2019-03-18T01:36:27.922Z,10.81
2019-03-18T01:36:59.141Z,10.69
2019-03-18T01:37:30.346Z,10.63
2019-03-18T01:38:01.616Z,10.61
2019-03-18T01:38:32.810Z,10.60
2019-03-18T01:39:04.014Z,10.59
2019-03-18T01:39:35.262Z,10.59
2019-03-18T01:40:06.471Z,10.57
2019-03-18T01:40:37.679Z,10.55
2019-03-18T01:41:08.878Z,10.53
2019-03-18T01:41:40.085Z,10.51
2019-03-18T01:42:11.291Z,10.49
2019-03-18T01:42:42.537Z,10.47
2019-03-18T01:43:13.732Z,10.43
2019-03-18T01:43:44.946Z,10.39
2019-03-18T01:44:16.159Z,10.38
2019-03-18T01:44:47.407Z,10.36
2019-03-18T01:45:18.622Z,10.25
2019-03-18T01:45:49.840Z,10.12
2019-03-18T01:46:21.046Z,10.04
2019-03-18T01:46:52.246Z,9.93
2019-03-18T01:47:23.458Z,9.82
2019-03-18T01:47:54.723Z,9.74
2019-03-18T01:48:25.983Z,9.67
2019-03-18T01:48:57.182Z,9.62
2019-03-18T01:49:28.439Z,9.52
2019-03-18T01:49:59.735Z,9.47
2019-03-18T01:50:30.931Z,9.41
2019-03-18T01:51:02.245Z,9.38
2019-03-18T01:51:33.456Z,9.34
2019-03-18T01:52:04.667Z,9.28
2019-03-18T01:52:35.877Z,9.24
2019-03-18T01:53:07.074Z,9.20
2019-03-18T01:53:38.294Z,9.16
2019-03-18T01:54:09.526Z,9.10
2019-03-18T01:54:40.721Z,9.06
2019-03-18T01:55:11.937Z,9.01
2019-03-18T01:55:43.180Z,8.97
2019-03-18T01:56:14.374Z,8.92
2019-03-18T01:56:45.584Z,8.89
2019-03-18T01:57:16.793Z,8.87
2019-03-18T01:57:47.991Z,8.85
2019-03-18T01:58:19.191Z,8.83
2019-03-18T01:58:50.422Z,8.90
2019-03-18T01:59:21.623Z,8.96
2019-03-18T01:59:52.854Z,8.98
2019-03-18T02:00:24.050Z,9.00
2019-03-18T02:00:55.284Z,9.00
2019-03-18T02:01:26.477Z,8.96
2019-03-18T02:01:57.685Z,8.94
2019-03-18T02:02:28.889Z,8.91
2019-03-18T02:03:00.112Z,8.88
2019-03-18T02:03:31.304Z,8.85
2019-03-18T02:04:02.528Z,8.81
2019-03-18T02:04:33.729Z,8.80
2019-03-18T02:05:04.927Z,8.78
2019-03-18T02:05:36.176Z,8.75
2019-03-18T02:06:07.376Z,8.72
2019-03-18T02:06:38.574Z,8.67
2019-03-18T02:07:09.784Z,8.61
2019-03-18T02:07:40.998Z,8.58
2019-03-18T02:08:12.247Z,8.55
2019-03-18T02:08:43.474Z,8.53
2019-03-18T02:09:14.698Z,8.50
2019-03-18T02:09:45.902Z,8.46
2019-03-18T02:10:17.111Z,8.42
2019-03-18T02:10:48.351Z,8.39
2019-03-18T02:11:19.585Z,8.34
2019-03-18T02:11:50.801Z,8.26
2019-03-18T02:12:22.006Z,8.26
2019-03-18T02:12:53.213Z,8.26
2019-03-18T02:13:24.411Z,8.24
2019-03-18T02:13:55.637Z,8.24
2019-03-18T02:14:26.838Z,8.23
2019-03-18T02:14:58.050Z,8.15
2019-03-18T02:15:29.298Z,8.11
2019-03-18T02:16:00.511Z,8.04
2019-03-18T02:16:31.729Z,8.02
2019-03-18T02:17:02.924Z,8.00
2019-03-18T02:17:34.124Z,7.92
2019-03-18T02:18:05.420Z,7.93
2019-03-18T02:18:36.643Z,8.06
2019-03-18T02:19:07.877Z,8.17
2019-03-18T02:19:39.073Z,8.23
2019-03-18T02:20:10.286Z,8.25
2019-03-18T02:20:41.501Z,8.27
2019-03-18T02:21:12.727Z,8.23
2019-03-18T02:21:43.921Z,8.22
2019-03-18T02:22:15.129Z,8.21
2019-03-18T02:22:46.327Z,8.21
2019-03-18T02:23:17.556Z,8.21
2019-03-18T02:23:48.763Z,8.22
2019-03-18T02:24:19.967Z,8.21
2019-03-18T02:24:51.165Z,8.21
2019-03-18T02:25:22.439Z,8.22
2019-03-18T02:25:53.643Z,8.22
2019-03-18T02:26:24.838Z,8.23
2019-03-18T02:26:56.029Z,8.23
2019-03-18T02:27:27.232Z,8.23
2019-03-18T02:27:58.430Z,8.23
2019-03-18T02:28:29.648Z,8.23
2019-03-18T02:29:00.851Z,8.24
2019-03-18T02:29:32.046Z,8.27
2019-03-18T02:30:03.242Z,8.27
2019-03-18T02:30:34.494Z,8.26
2019-03-18T02:31:05.692Z,8.26
2019-03-18T02:31:36.941Z,8.25
2019-03-18T02:32:08.114Z,8.25
2019-03-18T02:32:39.320Z,8.24
2019-03-18T02:33:10.564Z,8.24
2019-03-18T02:33:41.764Z,8.24
2019-03-18T02:34:12.959Z,8.25
2019-03-18T02:34:44.162Z,8.26
2019-03-18T02:35:15.346Z,8.27
2019-03-18T02:35:46.567Z,8.27
2019-03-18T02:36:17.763Z,8.25
2019-03-18T02:36:49.038Z,8.28
2019-03-18T02:37:20.234Z,8.28
2019-03-18T02:37:51.433Z,8.30
2019-03-18T02:38:22.636Z,8.30
2019-03-18T02:38:53.843Z,8.31
2019-03-18T02:39:25.104Z,8.32
2019-03-18T02:39:56.348Z,8.35
2019-03-18T02:40:27.554Z,8.36
2019-03-18T02:40:58.748Z,8.37
2019-03-18T02:41:29.985Z,8.39
2019-03-18T02:42:01.213Z,8.40
2019-03-18T02:42:32.440Z,8.41
2019-03-18T02:43:03.637Z,8.40
2019-03-18T02:43:34.844Z,8.38
2019-03-18T02:44:06.092Z,8.36
2019-03-18T02:44:37.296Z,8.34
2019-03-18T02:45:08.500Z,8.35
2019-03-18T02:45:39.708Z,8.34
2019-03-18T02:46:11.200Z,8.34
2019-03-18T02:46:42.615Z,8.35
2019-03-18T02:47:13.826Z,8.36
2019-03-18T02:47:45.038Z,8.36
2019-03-18T02:48:16.287Z,8.38
2019-03-18T02:48:47.485Z,8.39
2019-03-18T02:49:18.710Z,8.39
2019-03-18T02:49:49.924Z,8.37
2019-03-18T02:50:21.212Z,8.37
2019-03-18T02:50:52.407Z,8.36
2019-03-18T02:51:23.617Z,8.37
2019-03-18T02:51:54.826Z,8.37
2019-03-18T02:52:26.038Z,8.36
2019-03-18T02:52:57.244Z,8.36
2019-03-18T02:53:28.506Z,8.37
2019-03-18T02:53:59.707Z,8.37
2019-03-18T02:54:30.932Z,8.38
2019-03-18T02:55:02.173Z,8.39
2019-03-18T02:55:33.432Z,8.41
2019-03-18T02:56:04.630Z,8.41
2019-03-18T02:56:35.836Z,8.41
2019-03-18T02:57:07.044Z,8.42
2019-03-18T02:57:38.287Z,8.44
2019-03-18T02:58:09.485Z,8.43
2019-03-18T02:58:40.685Z,8.45
2019-03-18T02:59:11.895Z,8.47
2019-03-18T02:59:43.103Z,8.45
2019-03-18T03:00:14.309Z,8.46
2019-03-18T03:00:45.551Z,8.46
2019-03-18T03:01:16.749Z,8.48
2019-03-18T03:01:48.005Z,8.49
2019-03-18T03:02:19.180Z,8.50
2019-03-18T03:02:50.447Z,8.53
2019-03-18T03:03:21.669Z,8.54
2019-03-18T03:03:52.872Z,8.56
2019-03-18T03:04:24.125Z,8.59
2019-03-18T03:04:55.320Z,8.62
2019-03-18T03:05:26.544Z,8.62
2019-03-18T03:05:57.735Z,8.63
2019-03-18T03:06:28.935Z,8.63
2019-03-18T03:07:00.145Z,8.65
2019-03-18T03:07:31.412Z,8.66
2019-03-18T03:08:02.632Z,8.66
2019-03-18T03:08:33.841Z,8.68
2019-03-18T03:09:05.028Z,8.68
2019-03-18T03:09:36.344Z,8.70
2019-03-18T03:10:07.505Z,8.69
2019-03-18T03:10:38.719Z,8.70
2019-03-18T03:11:09.921Z,8.70
2019-03-18T03:11:41.140Z,8.68
2019-03-18T03:12:12.346Z,8.68
2019-03-18T03:12:43.604Z,8.66
2019-03-18T03:13:14.802Z,8.65
2019-03-18T03:13:46.007Z,8.61
2019-03-18T03:14:17.205Z,8.59
2019-03-18T03:14:48.433Z,8.59
2019-03-18T03:15:19.611Z,8.58
2019-03-18T03:15:50.824Z,8.49
2019-03-18T03:16:27.116Z,8.41
2019-03-18T03:16:55.082Z,8.32
2019-03-18T03:17:26.279Z,8.28
2019-03-18T03:17:57.495Z,8.25
2019-03-18T03:18:28.699Z,8.21
2019-03-18T03:18:59.897Z,8.18
2019-03-18T03:19:31.139Z,8.17
2019-03-18T03:20:02.341Z,8.18
2019-03-18T03:20:33.525Z,8.18
2019-03-18T03:21:04.732Z,8.17
2019-03-18T03:21:35.944Z,8.17
2019-03-18T03:22:07.136Z,8.15
2019-03-18T03:22:38.334Z,8.15
2019-03-18T03:23:09.554Z,8.15
2019-03-18T03:23:40.782Z,8.14
2019-03-18T03:24:12.159Z,8.12
2019-03-18T03:24:43.397Z,8.09
2019-03-18T03:25:14.598Z,8.08
2019-03-18T03:25:45.811Z,8.06
2019-03-18T03:26:17.019Z,8.07
2019-03-18T03:26:48.225Z,8.04
2019-03-18T03:27:19.440Z,7.98
2019-03-18T03:27:50.649Z,7.99
2019-03-18T03:28:21.848Z,7.98
2019-03-18T03:28:53.046Z,7.94
2019-03-18T03:29:24.309Z,7.94
2019-03-18T03:29:55.602Z,7.95
2019-03-18T03:30:26.787Z,7.95
2019-03-18T03:30:57.987Z,7.96
2019-03-18T03:31:29.296Z,7.99
2019-03-18T03:32:00.597Z,8.06
2019-03-18T03:32:31.801Z,8.11
2019-03-18T03:33:03.007Z,8.11
2019-03-18T03:33:34.213Z,8.12
2019-03-18T03:34:05.409Z,8.13
2019-03-18T03:34:36.623Z,8.13
2019-03-18T03:35:07.837Z,8.13
2019-03-18T03:35:39.065Z,8.11
2019-03-18T03:36:10.254Z,8.09
2019-03-18T03:36:41.458Z,8.09
2019-03-18T03:37:12.653Z,8.08
2019-03-18T03:37:43.863Z,8.08
2019-03-18T03:38:15.103Z,8.07
2019-03-18T03:38:46.327Z,8.07
2019-03-18T03:39:17.526Z,8.07
2019-03-18T03:39:48.724Z,8.07
2019-03-18T03:40:19.979Z,8.06
2019-03-18T03:40:51.189Z,8.04
2019-03-18T03:41:22.388Z,8.06
2019-03-18T03:41:53.600Z,8.07
2019-03-18T03:42:24.812Z,8.07
2019-03-18T03:42:56.060Z,8.08
2019-03-18T03:43:27.267Z,8.07
2019-03-18T03:43:58.471Z,8.10
2019-03-18T03:44:29.729Z,8.09
2019-03-18T03:45:00.918Z,8.07
2019-03-18T03:45:32.125Z,8.06
2019-03-18T03:46:03.342Z,8.06
2019-03-18T03:46:43.220Z,8.05
2019-03-18T03:47:07.482Z,8.04
2019-03-18T03:47:38.704Z,7.99
2019-03-18T03:48:09.958Z,7.98
2019-03-18T03:48:41.186Z,7.97
2019-03-18T03:49:12.436Z,7.97
2019-03-18T03:49:43.674Z,7.96
2019-03-18T03:50:14.861Z,7.95
2019-03-18T03:50:46.074Z,7.90
2019-03-18T03:51:17.268Z,7.87
2019-03-18T03:51:48.486Z,7.84
2019-03-18T03:52:19.766Z,7.81
2019-03-18T03:52:50.948Z,7.80
2019-03-18T03:53:22.158Z,7.76
2019-03-18T03:53:53.377Z,7.71
2019-03-18T03:54:24.636Z,7.69
2019-03-18T03:54:55.876Z,7.68
2019-03-18T03:55:27.087Z,7.64
2019-03-18T03:55:58.307Z,7.60
2019-03-18T03:56:29.536Z,7.58
2019-03-18T03:57:00.728Z,7.60
2019-03-18T03:57:31.927Z,7.61
2019-03-18T03:58:03.152Z,7.63
2019-03-18T03:58:34.340Z,7.65
2019-03-18T03:59:05.536Z,7.66
2019-03-18T03:59:36.751Z,7.65
2019-03-18T04:00:08.008Z,7.65
2019-03-18T04:00:39.216Z,7.65
2019-03-18T04:01:10.420Z,7.65
2019-03-18T04:01:41.620Z,7.66
2019-03-18T04:02:12.815Z,7.66
2019-03-18T04:02:44.020Z,7.65
2019-03-18T04:03:15.255Z,7.63
2019-03-18T04:03:46.505Z,7.60
2019-03-18T04:04:17.709Z,7.59
2019-03-18T04:04:48.957Z,7.58
2019-03-18T04:05:20.140Z,7.58
2019-03-18T04:05:52.398Z,7.56
2019-03-18T04:06:23.605Z,7.52
2019-03-18T04:06:54.819Z,7.51
2019-03-18T04:07:26.026Z,7.51
2019-03-18T04:07:57.267Z,7.50
2019-03-18T04:08:28.474Z,7.48
2019-03-18T04:08:59.709Z,7.47
2019-03-18T04:09:30.921Z,7.47
2019-03-18T04:10:02.217Z,7.46
2019-03-18T04:10:33.414Z,7.40
2019-03-18T04:11:08.164Z,7.36
2019-03-18T04:11:38.226Z,7.34
2019-03-18T04:12:09.453Z,7.30
2019-03-18T04:12:40.630Z,7.29
2019-03-18T04:13:11.843Z,7.29
2019-03-18T04:13:43.043Z,7.26
2019-03-18T04:14:14.264Z,7.22
2019-03-18T04:14:45.484Z,7.20
2019-03-18T04:15:16.723Z,7.17
2019-03-18T04:15:47.927Z,7.11
2019-03-18T04:16:19.121Z,7.07
2019-03-18T04:17:01.679Z,7.04
2019-03-18T04:17:23.250Z,7.03
2019-03-18T04:17:54.457Z,7.01
2019-03-18T04:18:25.663Z,6.99
2019-03-18T04:18:56.974Z,7.00
2019-03-18T04:19:28.304Z,7.01
2019-03-18T04:19:59.515Z,6.98
2019-03-18T04:20:30.742Z,7.00
2019-03-18T04:21:01.981Z,6.99
2019-03-18T04:21:33.190Z,6.98
2019-03-18T04:22:04.395Z,6.95
2019-03-18T04:22:35.597Z,6.96
2019-03-18T04:23:06.805Z,6.98
2019-03-18T04:23:38.093Z,6.99
2019-03-18T04:24:09.297Z,7.00
2019-03-18T04:24:40.524Z,7.01
2019-03-18T04:25:11.739Z,7.01
2019-03-18T04:25:42.936Z,7.00
2019-03-18T04:26:14.150Z,6.99
2019-03-18T04:26:45.375Z,6.97
2019-03-18T04:27:16.621Z,6.97
2019-03-18T04:27:47.891Z,6.94
2019-03-18T04:28:19.068Z,6.94
2019-03-18T04:28:50.297Z,6.93
2019-03-18T04:29:21.521Z,6.92
2019-03-18T04:29:52.722Z,6.88
2019-03-18T04:30:23.929Z,6.85
2019-03-18T04:30:55.153Z,6.83
2019-03-18T04:31:26.345Z,6.84
2019-03-18T04:31:57.600Z,6.82
2019-03-18T04:32:28.805Z,6.81
2019-03-18T04:33:00.064Z,6.80
2019-03-18T04:33:31.275Z,6.80
2019-03-18T04:34:02.543Z,6.82
2019-03-18T04:34:33.763Z,6.82
2019-03-18T04:35:04.962Z,6.82
2019-03-18T04:35:36.201Z,6.82
2019-03-18T04:36:07.450Z,6.81
2019-03-18T04:36:38.645Z,6.80
2019-03-18T04:37:09.863Z,6.79
2019-03-18T04:37:41.055Z,6.77
2019-03-18T04:38:12.252Z,6.78
2019-03-18T04:38:43.490Z,6.79
2019-03-18T04:39:14.694Z,6.81
2019-03-18T04:39:45.914Z,6.85
2019-03-18T04:40:17.115Z,6.89
2019-03-18T04:40:48.328Z,6.93
2019-03-18T04:41:19.544Z,6.96
2019-03-18T04:41:50.749Z,7.02
2019-03-18T04:42:21.964Z,7.09
2019-03-18T04:42:53.163Z,7.17
2019-03-18T04:43:24.431Z,7.22
2019-03-18T04:43:55.645Z,7.28
2019-03-18T04:44:26.854Z,7.36
2019-03-18T04:44:58.099Z,7.47
2019-03-18T04:45:29.291Z,7.54
2019-03-18T04:46:00.497Z,7.59
2019-03-18T04:46:31.717Z,7.67
2019-03-18T04:47:13.741Z,7.73
2019-03-18T04:47:35.866Z,7.81
2019-03-18T04:48:07.074Z,7.88
2019-03-18T04:48:38.315Z,7.99
2019-03-18T04:49:09.527Z,8.08
2019-03-18T04:49:40.725Z,8.19
2019-03-18T04:50:11.983Z,8.28
2019-03-18T04:50:43.188Z,8.37
2019-03-18T04:51:14.474Z,8.46
2019-03-18T04:51:45.692Z,8.52
2019-03-18T04:52:16.897Z,8.58
2019-03-18T04:52:48.090Z,8.65
2019-03-18T04:53:19.301Z,8.74
2019-03-18T04:53:50.514Z,8.85
2019-03-18T04:54:21.725Z,8.93
2019-03-18T04:54:52.924Z,9.04
2019-03-18T04:55:24.181Z,9.10
2019-03-18T04:55:55.393Z,9.20
2019-03-18T04:56:26.608Z,9.31
2019-03-18T04:56:57.853Z,9.43
2019-03-18T04:57:29.093Z,9.54
2019-03-18T04:58:00.319Z,9.62
2019-03-18T04:58:31.524Z,9.69
2019-03-18T04:59:02.731Z,9.76
2019-03-18T04:59:33.928Z,9.82
2019-03-18T05:00:05.153Z,9.88
2019-03-18T05:00:36.397Z,9.91
2019-03-18T05:01:07.637Z,10.02
2019-03-18T05:01:38.844Z,10.12
2019-03-18T05:02:10.047Z,10.21
2019-03-18T05:02:41.255Z,10.28
2019-03-18T05:03:12.472Z,10.24
2019-03-18T05:03:43.669Z,10.19
2019-03-18T05:04:14.892Z,10.18
2019-03-18T05:04:46.177Z,10.21
2019-03-18T05:05:17.448Z,10.28
2019-03-18T05:05:48.651Z,10.37
2019-03-18T05:06:19.869Z,10.47
2019-03-18T05:06:51.092Z,10.55
2019-03-18T05:07:22.294Z,10.58
2019-03-18T05:07:53.492Z,10.54
2019-03-18T05:08:24.697Z,10.50
2019-03-18T05:08:55.935Z,10.42
2019-03-18T05:09:27.146Z,10.31
2019-03-18T05:09:58.361Z,10.20
2019-03-18T05:10:29.612Z,10.13
2019-03-18T05:11:00.824Z,10.04
2019-03-18T05:11:32.022Z,9.97
2019-03-18T05:12:03.241Z,9.89
2019-03-18T05:12:34.449Z,9.85
2019-03-18T05:13:05.689Z,9.68
2019-03-18T05:13:36.952Z,9.53
2019-03-18T05:14:08.121Z,9.50
2019-03-18T05:14:39.335Z,9.51
2019-03-18T05:15:10.531Z,9.49
2019-03-18T05:15:41.848Z,9.52
2019-03-18T05:16:13.054Z,9.57
2019-03-18T05:16:44.282Z,9.64
2019-03-18T05:17:26.117Z,9.65
2019-03-18T05:17:48.426Z,9.70
2019-03-18T05:18:19.629Z,9.75
2019-03-18T05:18:50.838Z,9.77
2019-03-18T05:19:22.048Z,9.76
2019-03-18T05:19:53.240Z,9.81
2019-03-18T05:20:24.464Z,9.84
2019-03-18T05:20:55.705Z,9.82
2019-03-18T05:21:27.039Z,9.83
2019-03-18T05:21:58.239Z,9.81
2019-03-18T05:22:29.478Z,9.81
2019-03-18T05:23:00.703Z,9.87
2019-03-18T05:23:31.907Z,9.90
2019-03-18T05:24:03.170Z,9.94
2019-03-18T05:24:34.343Z,9.98
2019-03-18T05:25:05.560Z,9.98
2019-03-18T05:25:36.794Z,9.97
2019-03-18T05:26:07.993Z,10.00
2019-03-18T05:26:39.203Z,10.04
2019-03-18T05:27:10.422Z,10.06
2019-03-18T05:27:41.663Z,10.05
2019-03-18T05:28:12.873Z,10.07
2019-03-18T05:28:44.091Z,10.09
2019-03-18T05:29:15.285Z,10.13
2019-03-18T05:29:46.499Z,10.23
2019-03-18T05:30:17.706Z,10.28
2019-03-18T05:30:48.903Z,10.34
2019-03-18T05:31:20.103Z,10.43
2019-03-18T05:31:51.322Z,10.54
2019-03-18T05:32:22.536Z,10.64
2019-03-18T05:32:53.797Z,10.70
2019-03-18T05:33:25.022Z,10.77
2019-03-18T05:33:56.279Z,10.80
2019-03-18T05:34:27.480Z,10.80
2019-03-18T05:34:58.691Z,10.88
2019-03-18T05:35:29.892Z,10.94
2019-03-18T05:36:02.052Z,10.98
2019-03-18T05:36:33.268Z,11.01
2019-03-18T05:37:04.494Z,11.05
2019-03-18T05:37:35.729Z,11.10
2019-03-18T05:38:06.937Z,11.14
2019-03-18T05:38:38.175Z,11.11
2019-03-18T05:39:09.418Z,11.17
2019-03-18T05:39:40.639Z,11.20
2019-03-18T05:40:11.874Z,11.23
2019-03-18T05:40:43.075Z,11.28
2019-03-18T05:41:14.320Z,11.37
2019-03-18T05:41:45.493Z,11.45
2019-03-18T05:42:16.684Z,11.56
2019-03-18T05:42:47.924Z,11.57
2019-03-18T05:43:19.148Z,11.61
2019-03-18T05:43:50.361Z,11.64
2019-03-18T05:44:21.560Z,11.66
2019-03-18T05:44:52.763Z,11.69
2019-03-18T05:45:24.025Z,11.75
2019-03-18T05:45:55.257Z,11.84
2019-03-18T05:46:26.476Z,11.87
2019-03-18T05:46:57.678Z,11.90
2019-03-18T05:47:38.539Z,11.92
2019-03-18T05:48:01.844Z,11.85
2019-03-18T05:48:33.047Z,11.80
2019-03-18T05:49:04.248Z,11.88
2019-03-18T05:49:35.459Z,11.93
2019-03-18T05:50:06.670Z,12.01
2019-03-18T05:50:37.914Z,12.04
2019-03-18T05:51:09.135Z,12.12
2019-03-18T05:51:40.387Z,12.15
2019-03-18T05:52:11.585Z,12.11
2019-03-18T05:52:42.805Z,12.07
2019-03-18T05:53:14.008Z,12.07
2019-03-18T05:53:45.230Z,12.09
2019-03-18T05:54:16.439Z,12.10
2019-03-18T05:54:47.637Z,12.11
2019-03-18T05:55:18.841Z,12.17
2019-03-18T05:55:50.101Z,12.17
2019-03-18T05:56:21.298Z,12.15
2019-03-18T05:56:52.499Z,12.15
2019-03-18T05:57:25.911Z,12.17
2019-03-18T05:57:56.644Z,12.25
2019-03-18T05:58:27.891Z,12.25
2019-03-18T05:58:59.086Z,12.25
2019-03-18T05:59:30.305Z,12.30
2019-03-18T06:00:01.518Z,12.35
2019-03-18T06:00:32.727Z,12.38
2019-03-18T06:01:03.955Z,12.43
2019-03-18T06:01:35.164Z,12.50
2019-03-18T06:02:06.367Z,12.55
2019-03-18T06:02:37.560Z,12.53
2019-03-18T06:03:08.777Z,12.57
2019-03-18T06:03:40.001Z,12.59
2019-03-18T06:04:11.247Z,12.62
2019-03-18T06:04:42.520Z,12.69
2019-03-18T06:05:13.737Z,12.75
2019-03-18T06:05:44.941Z,12.77
2019-03-18T06:06:16.163Z,12.79
2019-03-18T06:06:47.376Z,12.83
2019-03-18T06:07:18.574Z,12.88
2019-03-18T06:07:49.785Z,12.90
2019-03-18T06:08:21.001Z,12.88
2019-03-18T06:08:52.194Z,12.87
2019-03-18T06:09:23.415Z,12.90
2019-03-18T06:09:54.684Z,12.90
2019-03-18T06:10:26.067Z,12.90
2019-03-18T06:10:57.298Z,12.92
2019-03-18T06:11:28.506Z,12.97
2019-03-18T06:11:59.728Z,13.03
2019-03-18T06:12:30.961Z,13.11
2019-03-18T06:13:02.195Z,13.13
2019-03-18T06:13:33.399Z,13.17
2019-03-18T06:14:04.599Z,13.21
2019-03-18T06:14:35.810Z,13.25
2019-03-18T06:15:07.034Z,13.27
2019-03-18T06:15:38.279Z,13.31
2019-03-18T06:16:09.508Z,13.35
2019-03-18T06:16:40.710Z,13.39
2019-03-18T06:17:11.921Z,13.44
2019-03-18T06:17:52.080Z,13.51
2019-03-18T06:18:16.084Z,13.56
2019-03-18T06:18:47.302Z,13.66
2019-03-18T06:19:18.510Z,13.76
2019-03-18T06:19:49.714Z,13.88
2019-03-18T06:20:20.968Z,13.99
2019-03-18T06:20:52.232Z,14.07
2019-03-18T06:21:23.503Z,14.12
2019-03-18T06:21:54.726Z,14.15
2019-03-18T06:22:25.944Z,14.16
2019-03-18T06:22:57.156Z,14.24
2019-03-18T06:23:28.405Z,14.30
2019-03-18T06:23:59.623Z,14.38
2019-03-18T06:24:30.882Z,14.47
2019-03-18T06:25:02.105Z,14.55
2019-03-18T06:25:33.365Z,14.65
2019-03-18T06:26:04.627Z,14.71
2019-03-18T06:26:35.876Z,14.80
2019-03-18T06:27:07.093Z,14.86
2019-03-18T06:27:38.305Z,14.92
2019-03-18T06:28:09.525Z,14.97
2019-03-18T06:28:40.740Z,14.96
2019-03-18T06:29:11.970Z,14.79
2019-03-18T06:29:43.183Z,14.74
2019-03-18T06:30:14.395Z,14.72
2019-03-18T06:30:45.640Z,14.72
2019-03-18T06:31:16.874Z,14.74
2019-03-18T06:31:48.483Z,14.71
2019-03-18T06:32:19.725Z,14.70
2019-03-18T06:32:50.940Z,14.69
2019-03-18T06:33:22.144Z,14.69
2019-03-18T06:33:53.381Z,14.69
2019-03-18T06:34:24.599Z,14.68
2019-03-18T06:34:55.807Z,14.62
2019-03-18T06:35:27.006Z,14.57
2019-03-18T06:35:58.255Z,14.52
2019-03-18T06:36:29.516Z,14.50
2019-03-18T06:37:00.728Z,14.47
2019-03-18T06:37:31.936Z,14.45
2019-03-18T06:38:03.135Z,14.40
2019-03-18T06:38:34.383Z,14.33
2019-03-18T06:39:05.583Z,14.26
2019-03-18T06:39:36.779Z,14.20
2019-03-18T06:40:07.992Z,14.13
2019-03-18T06:40:39.211Z,14.06
2019-03-18T06:41:10.419Z,13.99
2019-03-18T06:41:41.669Z,13.92
2019-03-18T06:42:12.878Z,13.90
2019-03-18T06:42:44.116Z,13.91
2019-03-18T06:43:15.339Z,13.92
2019-03-18T06:43:46.555Z,13.89
2019-03-18T06:44:17.752Z,13.88
2019-03-18T06:44:48.955Z,13.88
2019-03-18T06:45:20.157Z,13.87
2019-03-18T06:45:51.504Z,13.90
2019-03-18T06:46:22.714Z,13.92
2019-03-18T06:46:53.921Z,13.98
2019-03-18T06:47:25.150Z,14.01
2019-03-18T06:48:04.749Z,14.03
2019-03-18T06:48:29.311Z,14.06
2019-03-18T06:49:00.523Z,14.14